Time;durP1;ratioP1;P1;durP2;ratioP2;P2;SDS_P1;SDS_P2;PMS_P1;PMS_P2;Temp;Humidity;BMP_temperature;BMP_pressure;BME280_temperature;BME280_humidity;BME280_pressure;Samples;Min_cycle;Max_cycle;Signal;HPM_P1;HPM_P2
2022/04/24 00:01:30;;;;;;;6.20;3.17;;;;;;;13.13;47.65;99899.34;5040537;28;20098;-75
2022/04/24 00:03:56;;;;;;;8.32;3.40;;;;;;;13.12;47.30;99890.75;5040488;28;20056;-75
2022/04/24 00:06:21;;;;;;;6.55;2.83;;;;;;;13.07;48.03;99893.13;5038326;28;20135;-76
2022/04/24 00:08:47;;;;;;;5.22;2.92;;;;;;;13.11;47.69;99901.34;5039422;28;20037;-75
2022/04/24 00:11:12;;;;;;;5.18;3.10;;;;;;;13.08;47.79;99888.75;5038435;28;20040;-75
2022/04/24 00:13:40;;;;;;;5.82;3.30;;;;;;;12.95;48.20;99879.88;5039757;28;20036;-75
2022/04/24 00:16:06;;;;;;;4.18;2.85;;;;;;;12.85;48.82;99882.84;5039693;28;20028;-76
2022/04/24 00:18:32;;;;;;;7.75;3.40;;;;;;;12.93;48.31;99886.28;5039371;28;20065;-76
2022/04/24 00:20:57;;;;;;;4.95;2.85;;;;;;;12.91;48.46;99877.88;5040307;28;20520;-75
2022/04/24 00:23:23;;;;;;;4.63;3.38;;;;;;;12.83;48.98;99876.22;5057709;28;20043;-76
2022/04/24 00:25:48;;;;;;;4.20;3.20;;;;;;;12.77;49.27;99877.81;5037252;28;20048;-75
2022/04/24 00:28:14;;;;;;;7.95;4.20;;;;;;;12.84;48.87;99877.81;5053955;28;20493;-74
2022/04/24 00:30:39;;;;;;;5.60;3.80;;;;;;;12.90;48.46;99873.66;5056577;28;20022;-75
2022/04/24 00:33:05;;;;;;;4.55;3.00;;;;;;;12.77;49.12;99872.59;5039679;28;20036;-75
2022/04/24 00:35:31;;;;;;;3.60;2.85;;;;;;;12.82;49.15;99877.22;5039285;28;20051;-75
2022/04/24 00:37:57;;;;;;;5.30;3.40;;;;;;;12.78;49.34;99870.81;5055149;28;20028;-75
2022/04/24 00:40:23;;;;;;;4.80;3.30;;;;;;;12.68;49.68;99870.34;5061645;28;20142;-75
2022/04/24 00:42:48;;;;;;;5.78;3.65;;;;;;;12.75;49.58;99871.19;5058890;28;20147;-75
2022/04/24 00:45:14;;;;;;;6.20;3.83;;;;;;;12.77;49.84;99870.00;5060048;28;20176;-75
2022/04/24 00:47:43;;;;;;;3.65;3.22;;;;;;;12.69;50.10;99874.56;5024693;28;20040;-75
2022/04/24 00:50:08;;;;;;;6.32;3.78;;;;;;;12.58;50.28;99871.50;5063188;28;20298;-75
2022/04/24 00:52:35;;;;;;;6.40;3.90;;;;;;;12.56;50.84;99872.69;5040586;28;20378;-75
2022/04/24 00:55:01;;;;;;;6.43;3.90;;;;;;;12.64;50.08;99869.94;5058500;28;20473;-74
2022/04/24 00:57:27;;;;;;;5.03;3.22;;;;;;;12.60;49.85;99869.53;5056476;28;20043;-75
2022/04/24 00:59:52;;;;;;;5.32;3.85;;;;;;;12.52;50.56;99869.66;5039987;28;20024;-74
2022/04/24 01:02:18;;;;;;;7.82;3.55;;;;;;;12.54;50.16;99867.66;5056821;28;20040;-75
2022/04/24 01:04:44;;;;;;;4.53;3.25;;;;;;;12.45;50.92;99869.63;5038305;28;20488;-75
2022/04/24 01:07:10;;;;;;;4.57;3.70;;;;;;;12.39;50.69;99872.16;5039851;28;20048;-74
2022/04/24 01:09:36;;;;;;;8.35;3.72;;;;;;;12.35;50.91;99870.94;5054155;28;20044;-75
2022/04/24 01:12:03;;;;;;;6.15;3.60;;;;;;;12.31;51.09;99873.13;5041521;28;20033;-75
2022/04/24 01:14:30;;;;;;;4.55;3.40;;;;;;;12.21;51.88;99870.06;5044741;28;20040;-75
2022/04/24 01:16:57;;;;;;;5.90;3.78;;;;;;;12.21;51.48;99870.84;5040618;28;20043;-75
2022/04/24 01:19:25;;;;;;;8.73;4.43;;;;;;;12.11;51.71;99866.97;5057916;28;20036;-75
2022/04/24 01:21:51;;;;;;;6.75;3.88;;;;;;;12.04;51.92;99861.75;5062069;28;20048;-75
2022/04/24 01:24:21;;;;;;;8.63;4.85;;;;;;;11.92;52.11;99864.03;5040082;28;20075;-75
2022/04/24 01:26:47;;;;;;;5.97;4.10;;;;;;;11.98;51.77;99863.28;5055418;28;20618;-74
2022/04/24 01:29:14;;;;;;;5.45;4.20;;;;;;;11.88;52.50;99871.38;5042682;28;20070;-74
2022/04/24 01:31:41;;;;;;;5.10;4.20;;;;;;;11.79;52.89;99869.91;5024973;28;20052;-74
2022/04/24 01:34:07;;;;;;;5.88;3.80;;;;;;;11.75;52.93;99857.47;5053115;28;20056;-75
2022/04/24 01:36:32;;;;;;;7.32;4.72;;;;;;;11.74;53.29;99871.44;5039287;28;20537;-74
2022/04/24 01:38:58;;;;;;;8.02;4.95;;;;;;;11.59;53.09;99874.09;5059569;28;20492;-75
2022/04/24 01:41:23;;;;;;;5.88;4.22;;;;;;;11.47;53.55;99869.41;5054537;28;20033;-75
2022/04/24 01:43:50;;;;;;;8.88;4.35;;;;;;;11.48;53.90;99876.19;5040209;28;20417;-75
2022/04/24 01:46:15;;;;;;;7.85;4.38;;;;;;;11.39;53.76;99872.09;5043295;28;20117;-75
2022/04/24 01:48:41;;;;;;;7.07;4.75;;;;;;;11.34;54.09;99873.63;5038331;28;20045;-75
2022/04/24 01:51:08;;;;;;;7.35;4.70;;;;;;;11.27;54.51;99866.56;5039602;28;20086;-75
2022/04/24 01:53:34;;;;;;;7.70;4.63;;;;;;;11.24;54.48;99871.31;5056512;28;20032;-75
2022/04/24 01:56:02;;;;;;;6.38;4.40;;;;;;;11.15;54.94;99872.41;5056481;28;20116;-75
2022/04/24 01:58:28;;;;;;;5.65;4.45;;;;;;;11.13;54.89;99869.19;5035807;28;20044;-75
2022/04/24 02:00:54;;;;;;;10.45;4.88;;;;;;;10.99;55.30;99870.84;5040567;28;20024;-74
2022/04/24 02:03:21;;;;;;;8.07;5.32;;;;;;;11.00;55.37;99862.06;5052895;28;20039;-75
2022/04/24 02:05:47;;;;;;;6.75;4.68;;;;;;;10.96;55.32;99876.38;5038859;28;20333;-75
2022/04/24 02:08:14;;;;;;;6.28;4.40;;;;;;;10.89;56.16;99873.72;5037337;28;20033;-75
2022/04/24 02:10:41;;;;;;;6.65;4.75;;;;;;;10.81;56.17;99869.44;5042647;28;20029;-75
2022/04/24 02:13:07;;;;;;;7.03;4.93;;;;;;;10.70;56.00;99875.88;5057818;28;20031;-75
2022/04/24 02:15:33;;;;;;;7.85;4.80;;;;;;;10.77;56.44;99877.75;5057244;28;20552;-75
2022/04/24 02:17:59;;;;;;;6.70;4.80;;;;;;;10.76;56.33;99873.56;5058745;28;20028;-75
2022/04/24 02:20:25;;;;;;;8.85;5.65;;;;;;;10.81;56.55;99874.63;5051947;28;20033;-74
2022/04/24 02:22:50;;;;;;;7.82;4.80;;;;;;;10.66;56.61;99872.03;5055370;28;20032;-75
2022/04/24 02:25:17;;;;;;;6.63;4.40;;;;;;;10.58;56.82;99871.31;5038885;28;20085;-74
2022/04/24 02:27:44;;;;;;;7.75;5.03;;;;;;;10.66;56.03;99873.81;5056994;28;20552;-75
2022/04/24 02:30:10;;;;;;;7.55;5.30;;;;;;;10.52;56.47;99873.63;5041312;28;20119;-75
2022/04/24 02:32:35;;;;;;;6.38;4.57;;;;;;;10.52;56.77;99867.63;5059170;28;20041;-74
2022/04/24 02:35:01;;;;;;;7.88;5.00;;;;;;;10.40;57.01;99869.88;5058814;28;20048;-75
2022/04/24 02:37:27;;;;;;;7.95;5.25;;;;;;;10.37;57.58;99866.81;5061937;28;20560;-75
2022/04/24 02:39:52;;;;;;;8.60;5.10;;;;;;;10.29;57.66;99872.88;5044112;28;20036;-75
2022/04/24 02:42:18;;;;;;;7.93;5.75;;;;;;;10.30;57.95;99869.28;5031616;28;20036;-75
2022/04/24 02:44:44;;;;;;;8.95;5.53;;;;;;;10.24;58.03;99864.81;5026504;28;20032;-73
2022/04/24 02:47:10;;;;;;;8.93;5.38;;;;;;;10.23;58.22;99868.41;5063971;28;20504;-75
2022/04/24 02:49:36;;;;;;;6.53;5.53;;;;;;;10.21;58.08;99870.31;5042627;28;20029;-74
2022/04/24 02:52:01;;;;;;;10.93;5.90;;;;;;;10.23;58.11;99866.59;5058396;28;20485;-74
2022/04/24 02:54:27;;;;;;;8.00;5.97;;;;;;;10.20;57.95;99866.94;5041964;28;20047;-75
2022/04/24 02:56:52;;;;;;;9.45;5.78;;;;;;;10.14;58.27;99871.03;5040518;28;20114;-75
2022/04/24 02:59:17;;;;;;;10.30;5.88;;;;;;;10.03;58.75;99868.06;5057324;28;20040;-74
2022/04/24 03:01:45;;;;;;;9.35;6.20;;;;;;;10.03;58.68;99862.88;5058932;28;20275;-74
2022/04/24 03:04:11;;;;;;;12.15;5.55;;;;;;;10.04;58.45;99872.25;5040916;28;20036;-75
2022/04/24 03:06:37;;;;;;;8.18;5.57;;;;;;;9.93;58.97;99876.88;5038532;28;20032;-74
2022/04/24 03:09:03;;;;;;;10.45;6.80;;;;;;;9.92;58.71;99870.06;5042799;28;20508;-75
2022/04/24 03:11:28;;;;;;;7.85;6.22;;;;;;;9.94;58.82;99875.91;5056938;28;20028;-74
2022/04/24 03:13:54;;;;;;;9.80;6.00;;;;;;;9.93;58.91;99873.50;5041949;28;20137;-74
2022/04/24 03:16:20;;;;;;;8.73;6.07;;;;;;;9.93;58.99;99870.91;5040969;28;20036;-75
2022/04/24 03:18:45;;;;;;;9.38;6.00;;;;;;;9.90;59.29;99873.84;5057527;28;20439;-74
2022/04/24 03:21:11;;;;;;;9.60;6.10;;;;;;;9.77;59.39;99871.81;5042220;28;20028;-74
2022/04/24 03:23:36;;;;;;;9.05;6.05;;;;;;;9.76;58.91;99870.22;5055556;28;20589;-74
2022/04/24 03:26:02;;;;;;;7.70;6.00;;;;;;;9.74;59.37;99870.41;5043858;28;20508;-74
2022/04/24 03:28:27;;;;;;;8.13;5.65;;;;;;;9.72;59.33;99867.19;5041386;28;20417;-74
2022/04/24 03:30:52;;;;;;;10.90;6.30;;;;;;;9.63;59.46;99865.63;5057582;28;20037;-75
2022/04/24 03:33:18;;;;;;;15.25;7.20;;;;;;;9.67;59.50;99866.06;5038834;28;20033;-74
2022/04/24 03:35:43;;;;;;;13.13;6.40;;;;;;;9.61;59.57;99867.56;5058250;28;20045;-74
2022/04/24 03:38:09;;;;;;;8.10;6.07;;;;;;;9.55;59.57;99858.72;5039760;28;20111;-74
2022/04/24 03:40:34;;;;;;;8.85;6.20;;;;;;;9.54;59.78;99864.84;5039088;28;20037;-75
2022/04/24 03:43:00;;;;;;;12.68;6.88;;;;;;;9.51;59.98;99862.63;5039729;28;20040;-74
2022/04/24 03:45:25;;;;;;;11.32;7.00;;;;;;;9.46;60.33;99862.31;5039008;28;20029;-74
2022/04/24 03:47:52;;;;;;;17.13;7.03;;;;;;;9.40;60.71;99860.44;5040144;28;20312;-74
2022/04/24 03:50:19;;;;;;;11.95;7.10;;;;;;;9.44;60.35;99869.47;5059526;28;20362;-75
2022/04/24 03:52:44;;;;;;;9.35;6.65;;;;;;;9.33;60.73;99865.47;5036047;28;20040;-75
2022/04/24 03:55:10;;;;;;;12.55;7.57;;;;;;;9.39;60.58;99865.78;5040167;28;20055;-74
2022/04/24 03:57:35;;;;;;;12.30;7.53;;;;;;;9.34;60.51;99869.69;5056168;28;20035;-72
2022/04/24 04:00:01;;;;;;;13.27;7.10;;;;;;;9.32;60.55;99869.06;5039098;28;20052;-75
2022/04/24 04:02:44;;;;;;;10.68;7.40;;;;;;;9.34;60.82;99861.91;5058663;28;20183;-73
2022/04/24 04:05:10;;;;;;;;;;;;;;;9.31;60.61;99867.44;5055505;28;20040;-75
2022/04/24 04:07:35;;;;;;;12.93;7.15;;;;;;;9.31;60.89;99872.59;5056454;28;19920;-73
2022/04/24 04:10:00;;;;;;;14.30;8.10;;;;;;;9.31;61.22;99869.22;5038742;28;20556;-75
2022/04/24 04:12:27;;;;;;;13.38;7.70;;;;;;;9.28;61.31;99877.31;5059568;28;20522;-74
2022/04/24 04:14:53;;;;;;;12.68;7.90;;;;;;;9.28;61.61;99882.47;5038440;28;20032;-74
2022/04/24 04:17:18;;;;;;;12.55;7.93;;;;;;;9.25;61.55;99883.63;5041969;28;20040;-74
2022/04/24 04:19:44;;;;;;;17.88;7.97;;;;;;;9.22;61.74;99886.53;5038604;28;20082;-74
2022/04/24 04:22:09;;;;;;;12.98;7.65;;;;;;;9.16;61.80;99884.66;5060847;28;20560;-74
2022/04/24 04:24:35;;;;;;;13.10;7.43;;;;;;;9.14;62.18;99887.41;5040123;28;20036;-75
2022/04/24 04:27:01;;;;;;;14.35;7.78;;;;;;;9.13;62.32;99890.16;5056839;28;20029;-74
2022/04/24 04:29:26;;;;;;;13.32;8.45;;;;;;;9.06;62.47;99892.63;5057126;28;20550;-74
2022/04/24 04:31:51;;;;;;;12.70;8.23;;;;;;;9.10;62.50;99887.91;5057851;28;20094;-74
2022/04/24 04:34:17;;;;;;;14.52;8.23;;;;;;;9.08;62.56;99890.66;5058360;28;20024;-74
2022/04/24 04:36:42;;;;;;;12.85;8.90;;;;;;;8.98;62.99;99895.22;5057094;28;20036;-74
2022/04/24 04:39:08;;;;;;;11.45;8.30;;;;;;;9.07;62.85;99885.66;5056926;28;20082;-73
2022/04/24 04:41:33;;;;;;;12.98;8.15;;;;;;;9.00;63.11;99905.38;5054170;28;20033;-74
2022/04/24 04:44:00;;;;;;;15.05;8.18;;;;;;;9.07;62.92;99904.56;5055091;28;20041;-74
2022/04/24 04:46:25;;;;;;;18.83;8.93;;;;;;;9.02;63.06;99906.81;5057363;28;20029;-74
2022/04/24 04:48:51;;;;;;;16.60;8.80;;;;;;;9.05;63.49;99906.50;5039691;28;20061;-74
2022/04/24 04:51:16;;;;;;;12.95;8.65;;;;;;;9.01;63.12;99915.56;5054140;28;20036;-74
2022/04/24 04:53:42;;;;;;;15.07;9.25;;;;;;;9.00;63.85;99913.16;5018130;28;20028;-74
2022/04/24 04:56:08;;;;;;;14.88;9.35;;;;;;;8.98;63.80;99915.09;5024967;28;20033;-74
2022/04/24 04:58:33;;;;;;;15.77;9.10;;;;;;;9.01;63.57;99912.19;5054139;28;20040;-74
2022/04/24 05:01:00;;;;;;;15.13;9.40;;;;;;;9.05;63.67;99923.81;5054808;28;20482;-74
2022/04/24 05:03:26;;;;;;;14.68;9.00;;;;;;;8.94;64.10;99925.75;5039202;28;20063;-74
2022/04/24 05:05:52;;;;;;;15.43;9.25;;;;;;;8.96;64.09;99930.78;5019367;28;20032;-74
2022/04/24 05:08:17;;;;;;;13.88;8.93;;;;;;;8.94;64.23;99925.75;5038391;28;20517;-73
2022/04/24 05:10:42;;;;;;;20.13;8.65;;;;;;;9.01;64.34;99936.25;5058457;28;20383;-72
2022/04/24 05:13:08;;;;;;;15.02;9.57;;;;;;;8.96;64.43;99928.19;5059912;28;20040;-74
2022/04/24 05:15:33;;;;;;;14.07;8.77;;;;;;;9.06;63.92;99928.81;5039248;28;20133;-74
2022/04/24 05:17:59;;;;;;;19.42;9.27;;;;;;;8.99;64.38;99921.91;5056050;28;20119;-74
2022/04/24 05:20:24;;;;;;;20.17;10.10;;;;;;;9.01;64.08;99935.47;5059241;28;20048;-74
2022/04/24 05:22:50;;;;;;;18.60;9.68;;;;;;;8.96;64.66;99936.75;5036407;28;20024;-74
2022/04/24 05:25:15;;;;;;;14.60;9.90;;;;;;;9.04;64.15;99941.09;5039932;28;20043;-74
2022/04/24 05:27:41;;;;;;;15.90;8.82;;;;;;;9.04;64.51;99943.69;5034207;28;20032;-74
2022/04/24 05:30:08;;;;;;;15.73;10.20;;;;;;;9.01;64.87;99944.03;5052963;28;20115;-74
2022/04/24 05:32:52;;;;;;;17.42;9.75;;;;;;;9.00;65.21;99947.56;5037383;28;20036;-74
2022/04/24 05:35:17;;;;;;;13.85;9.15;;;;;;;8.99;64.47;99950.34;5056045;28;20048;-73
2022/04/24 05:37:45;;;;;;;13.82;8.60;;;;;;;8.98;65.04;99948.72;5031644;28;20032;-73
2022/04/24 05:40:11;;;;;;;15.60;9.20;;;;;;;9.00;65.16;99952.75;5057341;28;20037;-74
2022/04/24 05:42:57;;;;;;;17.40;8.65;;;;;;;9.05;64.89;99953.06;5037751;28;20062;-74
2022/04/24 05:45:24;;;;;;;14.48;9.38;;;;;;;9.07;64.67;99945.13;5055178;28;20040;-73
2022/04/24 05:47:54;;;;;;;19.55;9.20;;;;;;;9.01;65.37;99954.38;5056280;28;20535;-74
2022/04/24 05:50:23;;;;;;;18.33;9.43;;;;;;;9.11;64.56;99949.78;5039181;28;20451;-74
2022/04/24 05:52:49;;;;;;;15.73;8.82;;;;;;;9.16;64.46;99960.44;5035071;28;20044;-74
2022/04/24 05:55:15;;;;;;;16.67;8.88;;;;;;;9.23;64.12;99952.84;5034606;28;20047;-75
2022/04/24 05:57:40;;;;;;;14.23;8.48;;;;;;;9.53;63.37;99956.44;5037820;28;20048;-74
2022/04/24 06:00:12;;;;;;;17.42;9.25;;;;;;;9.86;62.06;99951.06;5036472;28;20093;-74
2022/04/24 06:02:39;;;;;;;17.73;9.03;;;;;;;10.05;61.54;99947.19;5051093;28;20475;-74
2022/04/24 06:05:06;;;;;;;13.90;8.43;;;;;;;10.22;60.56;99954.84;5048733;28;20039;-74
2022/04/24 06:07:31;;;;;;;19.58;8.80;;;;;;;10.00;61.74;99954.69;5058649;28;20036;-74
2022/04/24 06:09:57;;;;;;;14.02;8.60;;;;;;;9.92;62.09;99958.13;5038097;28;20120;-75
2022/04/24 06:12:22;;;;;;;15.68;8.93;;;;;;;10.11;61.49;99958.66;5058927;28;20472;-75
2022/04/24 06:14:47;;;;;;;16.27;7.90;;;;;;;9.94;61.61;99963.97;5060099;28;20032;-73
2022/04/24 06:17:13;;;;;;;13.52;7.93;;;;;;;9.85;62.42;99962.41;5060551;28;20044;-74
2022/04/24 06:19:38;;;;;;;12.65;8.57;;;;;;;9.90;62.13;99961.88;5053727;28;20029;-73
2022/04/24 06:22:04;;;;;;;18.10;8.40;;;;;;;9.87;62.34;99962.22;5040821;28;20549;-75
2022/04/24 06:24:30;;;;;;;11.23;7.85;;;;;;;9.81;62.25;99960.31;5040969;28;20036;-73
2022/04/24 06:26:55;;;;;;;11.48;7.80;;;;;;;9.87;62.60;99962.22;5060203;28;20043;-75
2022/04/24 06:29:21;;;;;;;16.55;7.22;;;;;;;9.93;62.51;99964.94;5042398;28;20036;-75
2022/04/24 06:31:46;;;;;;;13.05;7.53;;;;;;;10.05;62.05;99967.13;5043406;28;20036;-74
2022/04/24 06:34:11;;;;;;;14.02;7.85;;;;;;;10.11;62.57;99961.25;5020769;28;20037;-74
2022/04/24 06:36:37;;;;;;;12.82;7.40;;;;;;;10.14;61.28;99964.28;5042846;28;20486;-73
2022/04/24 06:39:03;;;;;;;10.65;7.60;;;;;;;10.19;61.52;99960.38;5063660;28;20040;-73
2022/04/24 06:41:29;;;;;;;14.77;8.38;;;;;;;10.25;61.07;99970.06;5060532;28;20102;-74
2022/04/24 06:43:54;;;;;;;30.25;14.43;;;;;;;10.34;60.84;99961.28;5042240;28;20141;-75
2022/04/24 06:46:20;;;;;;;14.20;8.00;;;;;;;10.45;60.74;99963.47;5058202;28;20067;-73
2022/04/24 06:48:45;;;;;;;14.73;7.97;;;;;;;10.56;60.85;99964.00;5041652;28;20031;-75
2022/04/24 06:51:11;;;;;;;12.77;7.93;;;;;;;10.41;59.94;99971.75;5055567;28;20314;-74
2022/04/24 06:53:38;;;;;;;13.02;7.30;;;;;;;10.50;59.89;99970.69;5041510;28;20401;-75
2022/04/24 06:56:04;;;;;;;13.05;8.43;;;;;;;10.57;60.40;99974.19;5038511;28;20066;-75
2022/04/24 06:58:30;;;;;;;13.45;7.85;;;;;;;10.63;60.08;99980.47;5041851;28;20169;-75
2022/04/24 07:00:56;;;;;;;13.93;7.57;;;;;;;11.07;58.80;99980.50;5041132;28;20056;-75
2022/04/24 07:03:22;;;;;;;13.38;7.32;;;;;;;11.69;57.47;99973.25;5058602;28;20441;-76
2022/04/24 07:05:49;;;;;;;12.27;7.70;;;;;;;12.50;54.89;99973.03;5055177;28;20196;-75
2022/04/24 07:08:14;;;;;;;11.88;7.65;;;;;;;12.99;52.19;99973.97;5043067;28;20025;-74
2022/04/24 07:10:40;;;;;;;11.25;7.13;;;;;;;13.25;51.57;99976.72;5060621;28;20060;-75
2022/04/24 07:13:06;;;;;;;15.90;7.55;;;;;;;13.63;50.97;99984.09;5041936;28;20089;-75
2022/04/24 07:15:38;;;;;;;17.10;7.60;;;;;;;13.40;50.97;99975.81;5056782;28;20512;-74
2022/04/24 07:18:05;;;;;;;14.25;7.82;;;;;;;14.00;49.95;99971.56;5059596;28;20579;-75
2022/04/24 07:20:30;;;;;;;14.57;7.78;;;;;;;14.73;48.78;99968.19;5038984;28;20037;-75
2022/04/24 07:23:01;;;;;;;16.83;7.70;;;;;;;15.18;47.41;99967.47;5041143;28;20477;-75
2022/04/24 07:25:28;;;;;;;15.85;8.10;;;;;;;15.41;46.66;99969.59;5032968;28;20024;-75
2022/04/24 07:27:54;;;;;;;15.75;7.50;;;;;;;16.03;46.11;99963.84;5044941;28;20028;-74
2022/04/24 07:30:21;;;;;;;15.05;6.82;;;;;;;16.19;44.80;99978.22;5066216;28;20541;-76
2022/04/24 07:32:54;;;;;;;16.13;7.43;;;;;;;15.72;45.07;99976.66;5046534;28;20519;-75
2022/04/24 07:35:24;;;;;;;18.23;7.50;;;;;;;16.08;44.70;99972.66;5064593;28;20307;-75
2022/04/24 07:37:50;;;;;;;12.23;7.30;;;;;;;16.22;44.41;99967.31;5030859;28;20409;-75
2022/04/24 07:40:17;;;;;;;12.25;7.05;;;;;;;16.50;43.92;99969.50;5065890;28;20035;-75
2022/04/24 07:42:56;;;;;;;13.80;6.78;;;;;;;16.46;43.02;99974.41;5047628;28;20032;-76
2022/04/24 07:45:39;;;;;;;13.55;6.25;;;;;;;15.92;43.47;99971.38;5051342;28;20374;-75
2022/04/24 07:48:05;;;;;;;;;;;;;;;16.26;43.64;99973.75;5061325;28;20040;-75
2022/04/24 07:50:35;;;;;;;14.27;7.05;;;;;;;16.31;43.34;99979.13;5051158;28;20003;-75
2022/04/24 07:53:01;;;;;;;15.32;7.35;;;;;;;16.68;43.63;99976.59;5047344;28;20025;-75
2022/04/24 07:55:27;;;;;;;12.63;8.05;;;;;;;17.06;42.62;99976.44;5046068;28;20082;-75
2022/04/24 07:57:55;;;;;;;10.77;6.75;;;;;;;16.98;42.67;99976.75;5065696;28;20028;-75
2022/04/24 08:00:22;;;;;;;9.85;6.55;;;;;;;17.48;41.76;99965.28;5051326;28;20639;-75
2022/04/24 08:02:47;;;;;;;11.02;6.30;;;;;;;17.10;41.79;99967.16;5031512;28;20070;-75
2022/04/24 08:05:21;;;;;;;12.82;6.80;;;;;;;17.49;41.57;99972.91;5064690;28;20063;-75
2022/04/24 08:07:46;;;;;;;14.45;6.85;;;;;;;17.04;41.61;99972.44;5064914;28;20090;-74
2022/04/24 08:10:12;;;;;;;18.35;7.30;;;;;;;17.18;41.71;99968.66;5049872;28;20036;-75
2022/04/24 08:12:37;;;;;;;17.80;7.38;;;;;;;16.71;42.15;99982.22;5064311;28;20017;-74
2022/04/24 08:15:03;;;;;;;10.52;6.97;;;;;;;17.10;41.75;99982.03;5066629;28;20028;-73
2022/04/24 08:17:29;;;;;;;11.70;6.68;;;;;;;17.21;41.71;99973.44;5048354;28;20428;-76
2022/04/24 08:19:55;;;;;;;13.77;6.97;;;;;;;17.57;40.34;99973.63;5065076;28;20044;-75
2022/04/24 08:22:20;;;;;;;15.07;7.65;;;;;;;16.88;40.97;99985.09;5068623;28;20086;-75
2022/04/24 08:24:46;;;;;;;11.13;7.65;;;;;;;17.28;41.51;99982.03;5063768;28;20040;-75
2022/04/24 08:27:11;;;;;;;13.50;6.97;;;;;;;17.35;40.61;99981.97;5049718;28;20604;-74
2022/04/24 08:29:37;;;;;;;14.13;7.75;;;;;;;17.63;40.40;99970.94;5041538;28;20043;-76
2022/04/24 08:32:03;;;;;;;12.50;7.18;;;;;;;17.92;40.72;99976.41;5062523;28;20055;-75
2022/04/24 08:34:28;;;;;;;15.38;7.50;;;;;;;18.05;39.72;99983.28;5046947;28;20036;-75
2022/04/24 08:36:53;;;;;;;17.00;8.32;;;;;;;17.61;39.82;99983.47;5043664;28;20067;-75
2022/04/24 08:39:19;;;;;;;12.60;7.20;;;;;;;17.85;40.31;99979.09;5046715;28;20044;-77
2022/04/24 08:41:45;;;;;;;12.85;6.65;;;;;;;18.07;39.77;99976.78;5042769;28;20040;-75
2022/04/24 08:44:10;;;;;;;11.82;7.47;;;;;;;18.05;39.29;99989.31;5061499;28;20372;-75
2022/04/24 08:46:36;;;;;;;10.40;7.18;;;;;;;17.95;39.67;99983.84;5051677;28;20089;-76
2022/04/24 08:49:03;;;;;;;13.90;7.60;;;;;;;17.60;39.41;99981.06;5065373;28;20120;-75
2022/04/24 08:51:29;;;;;;;11.38;7.05;;;;;;;17.84;39.32;99977.53;5031154;28;20113;-74
2022/04/24 08:53:56;;;;;;;14.40;7.82;;;;;;;17.67;39.86;99976.53;5044514;28;20059;-75
2022/04/24 08:56:22;;;;;;;19.45;11.30;;;;;;;17.81;40.23;99980.56;5066124;28;20667;-75
2022/04/24 08:58:47;;;;;;;22.05;13.88;;;;;;;18.14;39.03;99975.88;5065656;28;20123;-75
2022/04/24 09:01:13;;;;;;;30.63;20.73;;;;;;;18.47;39.18;99976.13;5047013;28;20099;-75
2022/04/24 09:03:38;;;;;;;12.95;8.00;;;;;;;18.53;39.35;99974.41;5025212;28;20032;-75
2022/04/24 09:06:04;;;;;;;17.10;7.65;;;;;;;18.34;38.09;99976.34;5061684;28;20048;-76
2022/04/24 09:08:32;;;;;;;11.02;6.93;;;;;;;18.77;38.78;99972.59;5043879;28;20091;-76
2022/04/24 09:10:58;;;;;;;16.23;7.63;;;;;;;18.85;38.03;99974.91;5044949;28;20020;-74
2022/04/24 09:14:14;;;;;;;8.52;6.63;;;;;;;18.88;37.63;99983.34;5045086;28;20040;-76
2022/04/24 09:16:51;;;;;;;15.20;7.18;;;;;;;18.43;38.12;99980.25;5060676;28;20048;-75
2022/04/24 09:19:17;;;;;;;12.30;7.47;;;;;;;17.75;39.63;99981.44;5045308;28;21541;-75
2022/04/24 09:21:43;;;;;;;12.82;7.03;;;;;;;18.47;39.57;99978.75;5045899;28;20071;-76
2022/04/24 09:24:08;;;;;;;12.95;7.45;;;;;;;18.61;38.60;99981.97;5062563;28;20024;-75
2022/04/24 09:26:34;;;;;;;14.30;7.65;;;;;;;17.86;38.27;99977.31;5062185;28;20093;-75
2022/04/24 09:28:59;;;;;;;11.18;6.60;;;;;;;17.97;39.49;99987.03;5059525;28;20037;-74
2022/04/24 09:31:29;;;;;;;10.80;7.13;;;;;;;17.84;40.15;99980.16;5062160;28;20056;-75
2022/04/24 09:33:54;;;;;;;11.68;7.57;;;;;;;18.05;39.21;99976.19;5061202;28;20047;-77
2022/04/24 09:36:24;;;;;;;17.45;7.65;;;;;;;17.89;39.20;99985.53;5060498;28;20029;-75
2022/04/24 09:38:51;;;;;;;13.57;7.45;;;;;;;17.94;39.28;99971.72;5060192;28;20036;-76
2022/04/24 09:41:19;;;;;;;11.70;7.25;;;;;;;18.27;39.85;99970.41;5061783;28;20029;-76
2022/04/24 09:43:45;;;;;;;14.07;6.93;;;;;;;18.26;39.57;99981.94;5063958;28;20033;-74
2022/04/24 09:46:10;;;;;;;14.55;6.97;;;;;;;18.33;38.92;99981.81;5050778;28;20048;-76
2022/04/24 09:48:36;;;;;;;17.10;7.40;;;;;;;18.40;38.74;99980.72;5065830;28;20036;-75
2022/04/24 09:51:02;;;;;;;12.93;7.13;;;;;;;18.50;38.06;99977.50;5063876;28;20032;-76
2022/04/24 09:53:29;;;;;;;9.60;7.22;;;;;;;18.34;38.53;99972.94;5049062;28;20401;-75
2022/04/24 09:55:55;;;;;;;11.50;7.63;;;;;;;18.05;38.81;99976.19;5052143;28;20075;-74
2022/04/24 09:58:21;;;;;;;10.00;7.28;;;;;;;18.10;38.98;99972.88;5047691;28;20036;-74
2022/04/24 10:00:47;;;;;;;15.00;7.15;;;;;;;18.27;40.09;99965.97;5066621;28;20038;-75
2022/04/24 10:03:17;;;;;;;12.95;7.15;;;;;;;18.51;39.22;99965.97;5047467;28;20745;-76
2022/04/24 10:05:45;;;;;;;19.10;9.40;;;;;;;18.47;38.36;99981.38;5051596;28;20021;-77
2022/04/24 10:08:11;;;;;;;11.02;7.43;;;;;;;18.40;38.87;99978.09;5044426;28;20608;-76
2022/04/24 10:10:37;;;;;;;11.30;8.00;;;;;;;18.44;39.08;99971.34;5045982;28;20115;-76
2022/04/24 10:13:08;;;;;;;9.93;7.70;;;;;;;18.81;38.68;99980.84;5046618;28;20097;-75
2022/04/24 10:15:37;;;;;;;12.25;7.70;;;;;;;19.01;38.49;99969.97;5067046;28;20098;-75
2022/04/24 10:18:35;;;;;;;13.05;7.75;;;;;;;18.86;37.58;99968.63;5061218;28;20089;-75
2022/04/24 10:21:21;;;;;;;12.52;7.85;;;;;;;18.79;38.31;99967.09;5050811;28;20036;-75
2022/04/24 10:23:47;;;;;;;10.82;6.72;;;;;;;18.86;38.94;99973.06;5063185;28;20029;-75
2022/04/24 10:26:18;;;;;;;15.63;7.78;;;;;;;18.35;38.64;99983.22;5050847;28;20497;-75
2022/04/24 10:28:46;;;;;;;13.75;7.88;;;;;;;18.15;38.82;99982.72;5043498;28;20139;-75
2022/04/24 10:31:12;;;;;;;14.50;8.23;;;;;;;17.91;39.59;99980.03;5050792;28;20033;-76
2022/04/24 10:33:39;;;;;;;14.20;8.20;;;;;;;18.28;39.96;99983.31;5065386;28;20035;-77
2022/04/24 10:36:05;;;;;;;18.27;7.93;;;;;;;18.83;40.05;99984.81;5048868;28;20194;-76
2022/04/24 10:38:44;;;;;;;15.02;7.85;;;;;;;19.06;38.65;99984.00;5047004;28;20502;-74
2022/04/24 10:41:22;;;;;;;12.80;8.00;;;;;;;18.56;37.94;99979.22;5036521;28;20124;-77
2022/04/24 10:43:51;;;;;;;22.20;8.57;;;;;;;18.38;38.61;99980.13;5047157;28;20040;-76
2022/04/24 10:46:26;;;;;;;14.63;7.35;;;;;;;18.93;38.84;99978.19;5044239;28;20048;-76
2022/04/24 10:48:52;;;;;;;12.48;8.27;;;;;;;19.14;37.65;99982.84;5041603;28;20086;-76
2022/04/24 10:51:32;;;;;;;11.10;7.72;;;;;;;19.12;38.36;99977.03;5041354;28;20059;-73
2022/04/24 10:54:00;;;;;;;14.15;8.45;;;;;;;18.65;39.43;99984.94;5063782;28;20123;-75
2022/04/24 10:56:33;;;;;;;13.30;8.02;;;;;;;18.71;38.49;99981.38;5024777;28;20070;-75
2022/04/24 10:59:15;;;;;;;;;;;;;;;18.90;39.14;99984.72;5057704;28;20040;-75
2022/04/24 11:01:50;;;;;;;12.48;8.25;;;;;;;18.92;38.32;99992.38;5044537;28;19966;-77
2022/04/24 11:04:17;;;;;;;16.77;8.57;;;;;;;18.48;38.65;99988.25;5041477;28;20036;-74
2022/04/24 11:07:02;;;;;;;14.02;7.68;;;;;;;18.90;38.72;99983.91;5038366;28;20504;-76
2022/04/24 11:09:36;;;;;;;13.18;7.65;;;;;;;18.93;38.71;99981.63;5054037;28;20452;-75
2022/04/24 11:12:07;;;;;;;11.73;8.45;;;;;;;19.03;37.52;99978.41;5054037;28;20086;-76
2022/04/24 11:14:34;;;;;;;22.20;8.20;;;;;;;18.98;38.31;99983.56;5040721;28;20040;-75
2022/04/24 11:17:01;;;;;;;13.63;7.90;;;;;;;19.23;37.69;99986.72;5037861;28;20205;-75
2022/04/24 11:19:30;;;;;;;12.40;8.25;;;;;;;19.08;37.29;99980.34;5039609;28;20214;-75
2022/04/24 11:22:04;;;;;;;16.25;8.73;;;;;;;18.81;38.48;99992.13;5060797;28;20123;-74
2022/04/24 11:24:37;;;;;;;16.55;8.85;;;;;;;18.35;38.50;99980.59;5058041;28;20028;-76
2022/04/24 11:27:14;;;;;;;13.38;9.05;;;;;;;18.91;37.70;99986.31;5056604;28;20028;-75
2022/04/24 11:29:43;;;;;;;11.50;7.65;;;;;;;19.09;37.86;99976.69;5057550;28;20040;-76
2022/04/24 11:32:08;;;;;;;15.93;8.45;;;;;;;19.10;37.51;99973.00;5057818;28;20046;-75